Map

Track Data

SID SEASON NUMBER BASIN SUBBASIN NAME ISO_TIME NATURE LAT LON WMO_WIND WMO_PRES WMO_AGENCY TRACK_TYPE DIST2LAND LANDFALL IFLAG USA_AGENCY USA_ATCF_ID USA_LAT USA_LON USA_RECORD USA_STATUS USA_WIND USA_PRES USA_SSHS USA_R34_NE USA_R34_SE USA_R34_SW USA_R34_NW USA_R50_NE USA_R50_SE USA_R50_SW USA_R50_NW USA_R64_NE USA_R64_SE USA_R64_SW USA_R64_NW USA_POCI USA_ROCI USA_RMW USA_EYE TOKYO_LAT TOKYO_LON TOKYO_GRADE TOKYO_WIND TOKYO_PRES TOKYO_R50_DIR TOKYO_R50_LONG TOKYO_R50_SHORT TOKYO_R30_DIR TOKYO_R30_LONG TOKYO_R30_SHORT TOKYO_LAND CMA_LAT CMA_LON CMA_CAT CMA_WIND CMA_PRES HKO_LAT HKO_LON HKO_CAT HKO_WIND HKO_PRES NEWDELHI_LAT NEWDELHI_LON NEWDELHI_GRADE NEWDELHI_WIND NEWDELHI_PRES NEWDELHI_CI NEWDELHI_DP NEWDELHI_POCI REUNION_LAT REUNION_LON REUNION_TYPE REUNION_WIND REUNION_PRES REUNION_TNUM REUNION_CI REUNION_RMW REUNION_R34_NE REUNION_R34_SE REUNION_R34_SW REUNION_R34_NW REUNION_R50_NE REUNION_R50_SE REUNION_R50_SW REUNION_R50_NW REUNION_R64_NE REUNION_R64_SE REUNION_R64_SW REUNION_R64_NW BOM_LAT BOM_LON BOM_TYPE BOM_WIND BOM_PRES BOM_TNUM BOM_CI BOM_RMW BOM_R34_NE BOM_R34_SE BOM_R34_SW BOM_R34_NW BOM_R50_NE BOM_R50_SE BOM_R50_SW BOM_R50_NW BOM_R64_NE BOM_R64_SE BOM_R64_SW BOM_R64_NW BOM_ROCI BOM_POCI BOM_EYE BOM_POS_METHOD BOM_PRES_METHOD NADI_LAT NADI_LON NADI_CAT NADI_WIND NADI_PRES WELLINGTON_LAT WELLINGTON_LON WELLINGTON_WIND WELLINGTON_PRES DS824_LAT DS824_LON DS824_STAGE DS824_WIND DS824_PRES TD9636_LAT TD9636_LON TD9636_STAGE TD9636_WIND TD9636_PRES TD9635_LAT TD9635_LON TD9635_WIND TD9635_PRES TD9635_ROCI NEUMANN_LAT NEUMANN_LON NEUMANN_CLASS NEUMANN_WIND NEUMANN_PRES MLC_LAT MLC_LON MLC_CLASS MLC_WIND MLC_PRES USA_GUST BOM_GUST BOM_GUST_PER REUNION_GUST REUNION_GUST_PER USA_SEAHGT USA_SEARAD_NE USA_SEARAD_SE USA_SEARAD_SW USA_SEARAD_NW STORM_SPEED STORM_DIR
1911011S16073 1911 2 SI MM NOT_NAMED 1911-01-11 00:00:00 TS -16.3000 73.1000 main 1675 1627 _________O____ -1 -16.3000 73.1000 TC 9 246
1911011S16073 1911 2 SI MM NOT_NAMED 1911-01-11 03:00:00 TS -16.4902 72.6526 main 1627 1570 _________P____ -1 -16.4902 72.6526 TC 10 245
1911011S16073 1911 2 SI MM NOT_NAMED 1911-01-11 06:00:00 TS -16.7000 72.2000 main 1570 1523 _________O____ -1 -16.7000 72.2000 TC 10 243
1911011S16073 1911 2 SI MM NOT_NAMED 1911-01-11 09:00:00 TS -16.9424 71.7425 main 1512 1462 _________P____ -1 -16.9424 71.7425 TC 10 240
1911011S16073 1911 2 SI MM NOT_NAMED 1911-01-11 12:00:00 TS -17.2000 71.3000 main 1462 1415 _________O____ -1 -17.2000 71.3000 TC 10 238
1911011S16073 1911 2 SI MM NOT_NAMED 1911-01-11 15:00:00 TS -17.4499 70.8924 main 1415 1366 _________P____ -1 -17.4499 70.8924 TC 9 237
1911011S16073 1911 2 SI MM NOT_NAMED 1911-01-11 18:00:00 TS -17.7000 70.5000 main 1366 1319 _________O____ -1 -17.7000 70.5000 TC 9 236
1911011S16073 1911 2 SI MM NOT_NAMED 1911-01-11 21:00:00 TS -17.9575 70.0925 main 1317 1270 _________P____ -1 -17.9575 70.0925 TC 9 237
1911011S16073 1911 2 SI MM NOT_NAMED 1911-01-12 00:00:00 TS -18.2000 69.7000 main 1270 1235 _________O____ -1 -18.2000 69.7000 TC 8 237
1911011S16073 1911 2 SI MM NOT_NAMED 1911-01-12 03:00:00 TS -18.4074 69.3498 main 1224 1189 _________P____ -1 -18.4074 69.3498 TC 8 239
1911011S16073 1911 2 SI MM NOT_NAMED 1911-01-12 06:00:00 TS -18.6000 69.0000 main 1189 1143 _________O____ -1 -18.6000 69.0000 TC 8 241
1911011S16073 1911 2 SI MM NOT_NAMED 1911-01-12 09:00:00 TS -18.8000 68.6074 main 1143 1098 _________P____ -1 -18.8000 68.6074 TC 9 242
1911011S16073 1911 2 SI MM NOT_NAMED 1911-01-12 12:00:00 TS -19.0000 68.2000 main 1098 1053 _________O____ -1 -19.0000 68.2000 TC 9 242
1911011S16073 1911 2 SI MM NOT_NAMED 1911-01-12 15:00:00 TS -19.1999 67.8074 main 1053 1008 _________P____ -1 -19.1999 67.8074 TC 9 242
1911011S16073 1911 2 SI MM NOT_NAMED 1911-01-12 18:00:00 TS -19.4000 67.4000 main 1008 964 _________O____ -1 -19.4000 67.4000 TC 9 244
1911011S16073 1911 2 SI MM NOT_NAMED 1911-01-12 21:00:00 TS -19.6000 66.9499 main 954 910 _________P____ -1 -19.6000 66.9499 TC 9 245
1911011S16073 1911 2 SI MM NOT_NAMED 1911-01-13 00:00:00 TS -19.8000 66.5000 main 910 866 _________O____ -1 -19.8000 66.5000 TC 9 243
1911011S16073 1911 2 SI MM NOT_NAMED 1911-01-13 03:00:00 TS -20.0074 66.0924 main 866 824 _________P____ -1 -20.0074 66.0924 TC 9 242
1911011S16073 1911 2 SI MM NOT_NAMED 1911-01-13 06:00:00 TS -20.2000 65.7000 main 824 782 _________O____ -1 -20.2000 65.7000 TC 8 245
1911011S16073 1911 2 SI MM NOT_NAMED 1911-01-13 09:00:00 TS -20.3422 65.3221 main 782 740 _________P____ -1 -20.3422 65.3221 TC 8 248
1911011S16073 1911 2 SI MM NOT_NAMED 1911-01-13 12:00:00 TS -20.5000 64.9000 main 740 688 _________O____ -1 -20.5000 64.9000 TC 10 246
1911011S16073 1911 2 SI MM NOT_NAMED 1911-01-13 15:00:00 TS -20.7349 64.3800 main 688 629 _________P____ -1 -20.7349 64.3800 TC 11 244
1911011S16073 1911 2 SI MM NOT_NAMED 1911-01-13 18:00:00 TS -21.0000 63.8000 main 629 570 _________O____ -1 -21.0000 63.8000 TC 12 245
1911011S16073 1911 2 SI MM NOT_NAMED 1911-01-13 21:00:00 TS -21.2574 63.2000 main 572 516 _________P____ -1 -21.2574 63.2000 TC 12 246
1911011S16073 1911 2 SI MM NOT_NAMED 1911-01-14 00:00:00 TS -21.5000 62.6000 main 516 472 _________O____ -1 -21.5000 62.6000 TC 12 247
1911011S16073 1911 2 SI MM NOT_NAMED 1911-01-14 03:00:00 TS -21.7073 62.0348 main 463 423 _________P____ -1 -21.7073 62.0348 TC 11 249
1911011S16073 1911 2 SI MM NOT_NAMED 1911-01-14 06:00:00 TS -21.9000 61.5000 main 423 385 _________O____ -1 -21.9000 61.5000 TC 10 248
1911011S16073 1911 2 SI MM NOT_NAMED 1911-01-14 09:00:00 TS -22.0998 60.9923 main 385 352 _________P____ -1 -22.0998 60.9923 TC 10 247
1911011S16073 1911 2 SI MM NOT_NAMED 1911-01-14 12:00:00 TS -22.3000 60.5000 main 352 326 _________O____ -1 -22.3000 60.5000 TC 10 247
1911011S16073 1911 2 SI MM NOT_NAMED 1911-01-14 15:00:00 TS -22.4924 59.9923 main 326 306 _________P____ -1 -22.4924 59.9923 TC 10 247
1911011S16073 1911 2 SI MM NOT_NAMED 1911-01-14 18:00:00 TS -22.7000 59.5000 main 308 300 _________O____ -1 -22.7000 59.5000 TC 10 242
1911011S16073 1911 2 SI MM NOT_NAMED 1911-01-14 21:00:00 TS -22.9421 59.0647 main 304 304 _________P____ -1 -22.9421 59.0647 TC 10 239
1911011S16073 1911 2 SI MM NOT_NAMED 1911-01-15 00:00:00 TS -23.2000 58.6000 main 315 312 _________O____ -1 -23.2000 58.6000 TC 11 242
1911011S16073 1911 2 SI MM NOT_NAMED 1911-01-15 03:00:00 TS -23.4425 58.0223 main 325 310 _________P____ -1 -23.4425 58.0223 TC 12 246
1911011S16073 1911 2 SI MM NOT_NAMED 1911-01-15 06:00:00 TS -23.7000 57.4000 main 314 309 _________O____ -1 -23.7000 57.4000 TC 13 244
1911011S16073 1911 2 SI MM NOT_NAMED 1911-01-15 09:00:00 TS -23.9924 56.7924 main 315 311 _________P____ -1 -23.9924 56.7924 TC 13 241
1911011S16073 1911 2 SI MM NOT_NAMED 1911-01-15 12:00:00 TS -24.3000 56.2000 main 329 328 _________O____ -1 -24.3000 56.2000 TC 12 240
1911011S16073 1911 2 SI MM NOT_NAMED 1911-01-15 15:00:00 TS -24.5998 55.6347 main 357 357 _________P____ -1 -24.5998 55.6347 TC 12 239
1911011S16073 1911 2 SI MM NOT_NAMED 1911-01-15 18:00:00 TS -24.9000 55.1000 main 394 394 _________O____ -1 -24.9000 55.1000 TC 11 237
1911011S16073 1911 2 SI MM NOT_NAMED 1911-01-15 21:00:00 TS -25.1920 54.6144 main 436 436 _________P____ -1 -25.1920 54.6144 TC 11 236
1911011S16073 1911 2 SI MM NOT_NAMED 1911-01-16 00:00:00 TS -25.5000 54.1000 main 483 483 _________O____ -1 -25.5000 54.1000 TC 12 238
1911011S16073 1911 2 SI MM NOT_NAMED 1911-01-16 03:00:00 TS -25.8351 53.4648 main 535 535 _________P____ -1 -25.8351 53.4648 TC 14 239
1911011S16073 1911 2 SI MM NOT_NAMED 1911-01-16 06:00:00 TS -26.2000 52.8000 main 583 540 _________O____ -1 -26.2000 52.8000 TC 14 237
1911011S16073 1911 2 SI MM NOT_NAMED 1911-01-16 09:00:00 TS -26.5847 52.1920 main 540 501 _________P____ -1 -26.5847 52.1920 TC 13 233
1911011S16073 1911 2 SI MM NOT_NAMED 1911-01-16 12:00:00 TS -27.0000 51.6000 main 501 472 _________O____ -1 -27.0000 51.6000 TC 14 231
1911011S16073 1911 2 SI MM NOT_NAMED 1911-01-16 15:00:00 TS -27.4423 50.9922 main 472 460 _________P____ -1 -27.4423 50.9922 TC 14 230
1911011S16073 1911 2 SI MM NOT_NAMED 1911-01-16 18:00:00 TS -27.9000 50.4000 main 460 453 _________O____ -1 -27.9000 50.4000 TC 14 228
1911011S16073 1911 2 SI MM NOT_NAMED 1911-01-16 21:00:00 TS -28.3529 49.8408 main 461 458 _________P____ -1 -28.3529 49.8408 TC 13 227
1911011S16073 1911 2 SI MM NOT_NAMED 1911-01-17 00:00:00 TS -28.8000 49.3000 main 471 _________O____ -1 -28.8000 49.3000 TC 13 227

About IBTrACS Database

This database is a web-friendly format of International Best Track Archive for Climate Stewardship (IBTrACS), a global best track data archive curated by NOAA dating back to 1842.

Updated: 2021-10-08